createdAt,value
2019-05-23T00:00:57.943Z,2.00
2019-05-23T00:03:30.429Z,1.90
2019-05-23T00:06:00.469Z,1.80
2019-05-23T00:08:32.144Z,1.70
2019-05-23T00:11:04.037Z,2.10
2019-05-23T00:13:35.413Z,1.90
2019-05-23T00:16:04.616Z,1.93
2019-05-23T00:18:34.540Z,2.53
2019-05-23T00:21:03.395Z,2.00
2019-05-23T00:23:32.622Z,1.70
2019-05-23T00:26:01.292Z,2.20
2019-05-23T00:28:29.778Z,2.43
2019-05-23T00:31:02.638Z,2.00
2019-05-23T00:33:32.877Z,2.40
2019-05-23T00:36:02.057Z,1.90
2019-05-23T00:38:32.980Z,2.17
2019-05-23T00:41:02.674Z,2.00
2019-05-23T00:43:31.140Z,1.80
2019-05-23T00:45:59.918Z,1.60
2019-05-23T00:48:28.530Z,1.97
2019-05-23T00:50:58.913Z,2.20
2019-05-23T00:53:28.048Z,1.97
2019-05-23T00:55:57.700Z,2.23
2019-05-23T00:58:26.557Z,2.30
2019-05-23T01:00:56.554Z,2.10
2019-05-23T01:03:28.330Z,2.03
2019-05-23T01:05:57.205Z,2.20
2019-05-23T01:08:26.965Z,1.87
2019-05-23T01:10:56.122Z,2.27
2019-05-23T01:13:25.029Z,2.00
2019-05-23T01:15:54.908Z,1.53
2019-05-23T01:18:25.039Z,2.30
2019-05-23T01:21:01.615Z,1.70
2019-05-23T01:23:40.645Z,2.17
2019-05-23T01:26:11.827Z,1.70
2019-05-23T01:28:40.769Z,2.60
2019-05-23T01:31:16.838Z,2.40
2019-05-23T01:33:45.309Z,2.17
2019-05-23T01:36:15.119Z,2.23
2019-05-23T01:38:43.877Z,2.30
2019-05-23T01:41:12.647Z,2.30
2019-05-23T01:43:41.739Z,2.40
2019-05-23T01:46:11.698Z,2.37
2019-05-23T01:48:40.169Z,2.23
2019-05-23T01:51:09.726Z,2.30
2019-05-23T01:53:38.152Z,1.90
2019-05-23T01:56:06.947Z,2.00
2019-05-23T01:58:35.353Z,2.00
2019-05-23T02:01:04.880Z,2.40
2019-05-23T02:03:33.907Z,2.10
2019-05-23T02:06:02.383Z,1.93
2019-05-23T02:08:30.808Z,2.10
2019-05-23T02:10:59.209Z,2.00
2019-05-23T02:13:27.691Z,2.50
2019-05-23T02:15:56.105Z,2.17
2019-05-23T02:18:25.365Z,2.80
2019-05-23T02:20:53.927Z,2.57
2019-05-23T02:23:22.514Z,2.10
2019-05-23T02:25:51.565Z,2.63
2019-05-23T02:28:20.422Z,2.37
2019-05-23T02:30:50.578Z,1.83
2019-05-23T02:33:18.997Z,2.30
2019-05-23T02:35:48.671Z,2.10
2019-05-23T02:38:18.821Z,2.50
2019-05-23T02:40:49.040Z,2.27
2019-05-23T02:43:28.513Z,2.80
2019-05-23T02:45:59.019Z,2.60
2019-05-23T02:48:31.102Z,3.00
2019-05-23T02:51:03.302Z,2.50
2019-05-23T02:53:35.368Z,2.40
2019-05-23T02:56:07.923Z,2.53
2019-05-23T02:59:07.884Z,2.20
2019-05-23T03:01:43.985Z,2.50
2019-05-23T03:04:17.010Z,2.43
2019-05-23T03:06:46.040Z,2.70
2019-05-23T03:09:16.479Z,2.50
2019-05-23T03:11:49.730Z,3.20
2019-05-23T03:14:19.034Z,3.20
2019-05-23T03:16:51.624Z,3.23
2019-05-23T03:19:32.309Z,3.10
2019-05-23T03:22:21.315Z,2.90
2019-05-23T03:24:51.576Z,2.00
2019-05-23T03:27:21.208Z,2.30
2019-05-23T03:29:51.577Z,2.20
2019-05-23T03:32:36.295Z,2.17
2019-05-23T03:35:03.813Z,2.43
2019-05-23T03:37:32.296Z,1.97
2019-05-23T03:40:02.312Z,2.83
2019-05-23T03:42:30.724Z,2.40
2019-05-23T03:44:59.618Z,2.70
2019-05-23T03:47:30.121Z,2.60
2019-05-23T03:49:58.532Z,2.90
2019-05-23T03:52:27.781Z,2.90
2019-05-23T03:54:57.349Z,2.30
2019-05-23T03:57:26.312Z,2.10
2019-05-23T03:59:56.382Z,2.70
2019-05-23T04:02:26.678Z,2.80
2019-05-23T04:04:55.911Z,2.90
2019-05-23T04:07:24.633Z,3.30
2019-05-23T04:09:53.350Z,3.03
2019-05-23T04:12:22.365Z,2.63
2019-05-23T04:14:50.914Z,2.27
2019-05-23T04:17:19.390Z,2.40
2019-05-23T04:19:47.989Z,2.60
2019-05-23T04:22:17.228Z,2.80
2019-05-23T04:24:46.108Z,2.67
2019-05-23T04:27:14.603Z,2.33
2019-05-23T04:29:43.096Z,2.57
2019-05-23T04:32:11.508Z,2.70
2019-05-23T04:34:40.045Z,1.90
2019-05-23T04:37:08.526Z,1.43
2019-05-23T04:39:37.303Z,1.63
2019-05-23T04:42:06.873Z,2.20
2019-05-23T04:44:35.403Z,2.17
2019-05-23T04:47:05.283Z,2.50
2019-05-23T04:49:33.751Z,2.30
2019-05-23T04:52:03.227Z,2.20
2019-05-23T04:54:31.685Z,2.37
2019-05-23T04:57:00.646Z,2.30
2019-05-23T04:59:29.497Z,2.97
2019-05-23T05:01:58.096Z,2.30
2019-05-23T05:04:26.642Z,2.50
2019-05-23T05:06:55.675Z,2.23
2019-05-23T05:09:28.885Z,3.50
2019-05-23T05:11:58.318Z,2.93
2019-05-23T05:14:27.573Z,2.80
2019-05-23T05:16:56.898Z,2.63
2019-05-23T05:19:25.816Z,2.43
2019-05-23T05:21:54.232Z,2.10
2019-05-23T05:24:22.841Z,2.07
2019-05-23T05:26:51.250Z,2.23
2019-05-23T05:29:19.683Z,2.70
2019-05-23T05:31:48.182Z,2.47
2019-05-23T05:34:16.663Z,2.90
2019-05-23T05:36:45.086Z,2.30
2019-05-23T05:39:13.797Z,2.57
2019-05-23T05:41:42.235Z,2.10
2019-05-23T05:44:11.720Z,3.30
2019-05-23T05:46:41.112Z,2.20
2019-05-23T05:49:10.172Z,2.77
2019-05-23T05:51:38.592Z,2.60
2019-05-23T05:54:08.062Z,2.43
2019-05-23T05:56:36.694Z,2.60
2019-05-23T05:59:06.341Z,2.67
2019-05-23T06:01:35.195Z,2.80
2019-05-23T06:04:04.611Z,2.63
2019-05-23T06:06:34.657Z,2.57
2019-05-23T06:09:16.788Z,2.77
2019-05-23T06:11:45.201Z,2.10
2019-05-23T06:14:13.690Z,2.40
2019-05-23T06:16:42.804Z,3.07
2019-05-23T06:19:11.926Z,3.00
2019-05-23T06:21:41.492Z,2.70
2019-05-23T06:24:10.412Z,3.27
2019-05-23T06:26:42.020Z,4.17
2019-05-23T06:29:10.734Z,2.50
2019-05-23T06:31:40.330Z,3.00
2019-05-23T06:34:09.425Z,3.27
2019-05-23T06:36:38.198Z,2.90
2019-05-23T06:39:10.720Z,2.77
2019-05-23T06:41:39.138Z,2.63
2019-05-23T06:44:09.098Z,2.77
2019-05-23T06:46:37.773Z,2.87
2019-05-23T06:49:06.202Z,3.47
2019-05-23T06:51:34.947Z,2.77
2019-05-23T06:54:03.497Z,3.10
2019-05-23T06:56:31.898Z,2.77
2019-05-23T06:59:00.300Z,3.37
2019-05-23T07:01:28.810Z,4.57
2019-05-23T07:03:57.357Z,3.93
2019-05-23T07:06:26.514Z,3.50
2019-05-23T07:08:55.023Z,2.93
2019-05-23T07:11:23.779Z,4.10
2019-05-23T07:13:52.667Z,3.57
2019-05-23T07:16:21.090Z,3.90
2019-05-23T07:18:49.506Z,4.20
2019-05-23T07:21:18.589Z,4.23
2019-05-23T07:23:47.075Z,3.40
2019-05-23T07:26:15.864Z,4.13
2019-05-23T07:28:44.846Z,3.57
2019-05-23T07:31:13.325Z,3.97
2019-05-23T07:33:59.899Z,3.97
2019-05-23T07:36:13.169Z,4.23
2019-05-23T07:38:41.580Z,3.67
2019-05-23T07:41:10.114Z,3.50
2019-05-23T07:43:38.887Z,3.90
2019-05-23T07:46:07.308Z,3.00
2019-05-23T07:48:35.886Z,3.77
2019-05-23T07:51:04.445Z,3.90
2019-05-23T07:53:34.598Z,3.70
2019-05-23T07:56:04.107Z,3.43
2019-05-23T07:58:32.895Z,3.30
2019-05-23T08:01:05.930Z,3.60
2019-05-23T08:03:36.536Z,2.97
2019-05-23T08:06:05.550Z,3.37
2019-05-23T08:08:34.921Z,3.33
2019-05-23T08:11:03.534Z,3.70
2019-05-23T08:13:32.125Z,3.40
2019-05-23T08:16:01.349Z,3.70
2019-05-23T08:18:30.501Z,3.50
2019-05-23T08:20:58.923Z,3.77
2019-05-23T08:23:27.907Z,3.90
2019-05-23T08:25:56.487Z,4.00
2019-05-23T08:28:25.195Z,3.30
2019-05-23T08:30:53.828Z,3.80
2019-05-23T08:33:22.884Z,3.80
2019-05-23T08:35:51.973Z,3.10
2019-05-23T08:38:21.469Z,3.50
2019-05-23T08:40:51.221Z,3.93
2019-05-23T08:43:19.794Z,3.73
2019-05-23T08:45:48.381Z,3.70
2019-05-23T08:48:16.977Z,3.87
2019-05-23T08:50:45.451Z,3.20
2019-05-23T08:53:13.878Z,3.70
2019-05-23T08:55:42.467Z,3.63
2019-05-23T08:58:12.006Z,3.80
2019-05-23T09:00:41.427Z,3.80
2019-05-23T09:03:10.799Z,4.03
2019-05-23T09:05:40.910Z,4.60
2019-05-23T09:08:11.357Z,4.30
2019-05-23T09:10:40.833Z,4.67
2019-05-23T09:13:09.411Z,4.10
2019-05-23T09:15:37.950Z,4.10
2019-05-23T09:18:06.989Z,4.43
2019-05-23T09:20:36.160Z,3.73
2019-05-23T09:23:04.649Z,4.20
2019-05-23T09:25:33.572Z,4.40
2019-05-23T09:28:02.761Z,4.73
2019-05-23T09:30:32.466Z,4.07
2019-05-23T09:33:01.201Z,4.00
2019-05-23T09:35:29.779Z,4.60
2019-05-23T09:37:58.442Z,4.27
2019-05-23T09:40:27.138Z,4.60
2019-05-23T09:42:55.693Z,4.60
2019-05-23T09:45:24.174Z,4.13
2019-05-23T09:47:52.671Z,4.20
2019-05-23T09:50:22.781Z,3.73
2019-05-23T09:52:51.273Z,3.87
2019-05-23T09:55:19.842Z,3.97
2019-05-23T09:57:48.260Z,3.80
2019-05-23T10:00:20.015Z,4.07
2019-05-23T10:02:48.516Z,4.03
2019-05-23T10:05:17.385Z,4.67
2019-05-23T10:07:45.805Z,3.80
2019-05-23T10:10:15.627Z,4.03
2019-05-23T10:12:44.198Z,4.57
2019-05-23T10:15:32.936Z,4.13
2019-05-23T10:18:01.429Z,4.00
2019-05-23T10:20:32.152Z,4.40
2019-05-23T10:23:00.572Z,4.37
2019-05-23T10:25:29.137Z,4.23
2019-05-23T10:27:57.694Z,3.67
2019-05-23T10:30:26.324Z,3.70
2019-05-23T10:32:55.100Z,3.60
2019-05-23T10:35:24.559Z,3.57
2019-05-23T10:37:53.071Z,3.60
2019-05-23T10:40:22.157Z,3.93
2019-05-23T10:42:50.722Z,3.93
2019-05-23T10:45:19.392Z,4.53
2019-05-23T10:47:47.810Z,4.00
2019-05-23T10:50:16.672Z,4.00
2019-05-23T10:52:45.120Z,4.20
2019-05-23T10:55:14.404Z,4.07
2019-05-23T10:57:43.086Z,3.70
2019-05-23T11:00:13.597Z,4.60
2019-05-23T11:02:42.881Z,4.43
2019-05-23T11:05:13.801Z,4.60
2019-05-23T11:07:42.717Z,4.20
2019-05-23T11:10:11.780Z,4.90
2019-05-23T11:12:41.707Z,4.10
2019-05-23T11:15:10.491Z,5.50
2019-05-23T11:17:39.181Z,4.37
2019-05-23T11:20:10.535Z,4.33
2019-05-23T11:22:39.432Z,4.73
2019-05-23T11:25:10.320Z,5.13
2019-05-23T11:27:38.816Z,4.50
2019-05-23T11:30:11.031Z,5.07
2019-05-23T11:32:39.519Z,4.50
2019-05-23T11:35:08.230Z,5.00
2019-05-23T11:37:36.843Z,4.43
2019-05-23T11:40:08.392Z,4.30
2019-05-23T11:42:36.897Z,5.27
2019-05-23T11:45:08.347Z,4.60
2019-05-23T11:47:37.366Z,4.57
2019-05-23T11:50:07.173Z,4.60
2019-05-23T11:52:35.708Z,4.30
2019-05-23T11:55:06.312Z,3.90
2019-05-23T11:57:37.887Z,4.43
2019-05-23T12:00:08.877Z,4.50
2019-05-23T12:02:39.114Z,4.83
2019-05-23T12:05:09.509Z,4.10
2019-05-23T12:07:38.125Z,3.90
2019-05-23T12:10:07.368Z,4.00
2019-05-23T12:12:35.784Z,3.87
2019-05-23T12:15:08.901Z,4.00
2019-05-23T12:17:37.392Z,3.73
2019-05-23T12:20:07.596Z,3.80
2019-05-23T12:22:36.386Z,3.83
2019-05-23T12:25:20.861Z,3.80
2019-05-23T12:27:38.957Z,4.57
2019-05-23T12:30:10.958Z,3.93
2019-05-23T12:32:39.402Z,4.20
2019-05-23T12:35:10.889Z,4.60
2019-05-23T12:38:02.914Z,2.20
2019-05-23T12:40:31.473Z,2.10
2019-05-23T12:42:59.911Z,2.53
2019-05-23T12:45:28.381Z,2.10
2019-05-23T12:48:04.433Z,2.63
2019-05-23T12:50:46.675Z,2.30
2019-05-23T12:53:15.981Z,2.57
2019-05-23T12:55:44.456Z,2.30
2019-05-23T12:58:12.877Z,3.00
2019-05-23T13:00:43.095Z,2.30
2019-05-23T13:03:13.329Z,2.23
2019-05-23T13:05:42.067Z,2.30
2019-05-23T13:08:10.652Z,2.30
2019-05-23T13:10:39.308Z,3.20
2019-05-23T13:13:07.982Z,2.70
2019-05-23T13:15:37.548Z,2.40
2019-05-23T13:18:05.969Z,2.30
2019-05-23T13:20:34.672Z,2.80
2019-05-23T13:23:03.225Z,2.17
2019-05-23T13:25:32.423Z,2.70
2019-05-23T13:28:00.864Z,2.40
2019-05-23T13:30:29.367Z,2.60
2019-05-23T13:32:58.026Z,2.80
2019-05-23T13:35:26.943Z,2.87
2019-05-23T13:37:55.526Z,2.30
2019-05-23T13:40:25.117Z,2.50
2019-05-23T13:42:54.591Z,2.60
2019-05-23T13:45:23.180Z,2.17
2019-05-23T13:47:51.928Z,2.43
2019-05-23T13:50:20.764Z,2.37
2019-05-23T13:52:49.758Z,2.37
2019-05-23T13:55:18.622Z,2.63
2019-05-23T13:57:47.282Z,2.30
2019-05-23T14:00:16.313Z,2.13
2019-05-23T14:02:44.723Z,2.60
2019-05-23T14:05:13.472Z,2.40
2019-05-23T14:07:41.976Z,2.57
2019-05-23T14:10:11.798Z,2.80
2019-05-23T14:12:40.493Z,2.77
2019-05-23T14:15:11.187Z,2.43
2019-05-23T14:17:43.866Z,2.70
2019-05-23T14:20:14.827Z,2.67
2019-05-23T14:22:46.921Z,2.43
2019-05-23T14:25:15.533Z,2.47
2019-05-23T14:27:51.655Z,2.70
2019-05-23T14:30:37.340Z,2.67
2019-05-23T14:33:11.508Z,2.60
2019-05-23T14:35:41.636Z,2.50
2019-05-23T14:38:29.274Z,2.43
2019-05-23T14:40:43.662Z,2.97
2019-05-23T14:43:13.715Z,2.17
2019-05-23T14:45:46.597Z,2.30
2019-05-23T14:48:19.491Z,2.63
2019-05-23T14:50:52.792Z,2.13
2019-05-23T14:53:25.481Z,2.20
2019-05-23T14:55:53.898Z,2.80
2019-05-23T14:58:22.467Z,2.60
2019-05-23T15:00:50.987Z,2.67
2019-05-23T15:03:19.618Z,2.77
2019-05-23T15:05:48.275Z,2.57
2019-05-23T15:08:16.762Z,2.43
2019-05-23T15:10:45.187Z,1.90
2019-05-23T15:13:13.768Z,3.37
2019-05-23T15:15:42.289Z,2.80
2019-05-23T15:18:11.327Z,2.60
2019-05-23T15:20:39.738Z,3.03
2019-05-23T15:23:08.173Z,2.33
2019-05-23T15:25:36.575Z,2.40
2019-05-23T15:28:05.341Z,1.90
2019-05-23T15:30:33.756Z,2.10
2019-05-23T15:33:02.236Z,2.60
2019-05-23T15:35:31.165Z,2.50
2019-05-23T15:37:59.727Z,2.63
2019-05-23T15:40:29.019Z,2.90
2019-05-23T15:42:57.438Z,2.10
2019-05-23T15:45:26.134Z,2.43
2019-05-23T15:47:55.073Z,2.27
2019-05-23T15:50:34.157Z,3.23
2019-05-23T15:53:04.240Z,2.47
2019-05-23T15:55:50.925Z,2.20
2019-05-23T15:58:30.206Z,2.77
2019-05-23T16:01:16.728Z,2.27
2019-05-23T16:03:46.903Z,2.47
2019-05-23T16:06:17.147Z,2.10
2019-05-23T16:08:45.581Z,1.93
2019-05-23T16:11:17.278Z,2.40
2019-05-23T16:13:44.367Z,2.60
2019-05-23T16:16:12.951Z,2.50
2019-05-23T16:18:41.388Z,2.13
2019-05-23T16:21:10.122Z,1.97
2019-05-23T16:23:38.594Z,2.10
2019-05-23T16:26:09.384Z,2.60
2019-05-23T16:28:37.440Z,1.93
2019-05-23T16:31:05.891Z,2.77
2019-05-23T16:33:34.389Z,1.70
